Guarani, Brazil
Current Conditions -  °F | °C
As of 8:00 PM on Saturday 24 Jan 2015 (Local Time) from SBBQ Reporting Station
Haze Haze  
Wind Chill: 63°   Ceiling: 300
Heat Index: 63°   Visibility: 0.93mi
Dew Point: 61°   Wind: 8mph
Humidity: 94%   Direction: 150°SSE
Pressure: 30.18"   Gusts: NA
Location:  21.35°S, 43.05°W
Report Text: SBBQ 242200Z 15007KT 1500 BR OVC003 17/16 Q1022
Loading
Personal Weather Stations






























Interactive Weather Map New forecast layout! Learn more

10-Day Weather Forecast

Advertisements
Track Severe Weather on mobile